This is the latest recevied weather packets stored in our database for station/object KD8ZLZ. If no packets are shown the sender has not sent any weather packets the latest 10 day(s).
| Time | Temp. | Humidity | Pressure | Rain* | Wind** | Luminosity | Snow |
|---|---|---|---|---|---|---|---|
| 1777796731 | 1.11° C | 81% | 1015.6 hPa | 0 mm | - | - | - |
| 1777795232 | 1.11° C | 84% | 1015.6 hPa | 0 mm | - | - | - |
| 1777794032 | 1.67° C | 76% | 1015.7 hPa | 0 mm | - | - | - |
| 1777793452 | 1.67° C | 73% | 1015.6 hPa | 0 mm | - | - | - |
| 1777791932 | 2.22° C | 72% | 1016 hPa | 0 mm | - | - | - |
| 1777787732 | 1.67° C | 81% | 1016.3 hPa | 0 mm | - | - | - |
| 1777785932 | 2.22° C | 82% | 1016.3 hPa | 0 mm | - | - | - |
| 1777784732 | 2.22° C | 81% | 1016.3 hPa | 0 mm | - | - | - |
| 1777784131 | 2.22° C | 84% | 1016.3 hPa | 0 mm | - | - | - |
| 1777783531 | 1.67° C | 86% | 1016.3 hPa | 0 mm | - | - | - |
| 1777782632 | 1.67° C | 87% | 1016.6 hPa | 0 mm | - | - | - |
| 1777782331 | 1.67° C | 83% | 1016.6 hPa | 0 mm | - | - | - |
| 1777779931 | 2.22° C | 85% | 1016.6 hPa | 0 mm | - | - | - |
| 1777779052 | 2.22° C | 80% | 1016.6 hPa | 0 mm | - | - | - |
| 1777778431 | 2.22° C | 82% | 1016.9 hPa | 0 mm | - | - | - |
| 1777777232 | 2.22° C | 83% | 1016.9 hPa | 0 mm | - | - | - |
| 1777776032 | 2.78° C | 80% | 1016.9 hPa | 0 mm | - | - | - |
| 1777775731 | 2.78° C | 80% | 1017 hPa | 0 mm | - | - | - |
| 1777775132 | 2.78° C | 77% | 1017 hPa | 0 mm | - | - | - |
| 1777772132 | 5° C | 67% | 1016.7 hPa | 0 mm | - | - | - |
| 1777771532 | 5.56° C | 66% | 1016.7 hPa | 0 mm | - | - | - |
| 1777770632 | 6.67° C | 51% | 1016.8 hPa | 0 mm | - | - | - |
| 1777770031 | 7.22° C | 49% | 1016.7 hPa | 0 mm | - | - | - |
| 1777768231 | 8.33° C | 46% | 1016.4 hPa | 0 mm | - | - | - |
| 1777767931 | 8.89° C | 45% | 1016.8 hPa | 0 mm | - | - | - |
* Rain latest hour (hover to see other rain measurements)
** Current wind speed in m/s (hover to see current wind gust speed)